createdAt,value
2018-11-20T00:00:10.278Z,1004.21
2018-11-20T00:01:09.996Z,1004.19
2018-11-20T00:02:09.972Z,1004.18
2018-11-20T00:03:09.967Z,1004.16
2018-11-20T00:04:09.944Z,1004.14
2018-11-20T00:05:10.008Z,1004.22
2018-11-20T00:06:09.968Z,1004.02
2018-11-20T00:07:09.911Z,1004.14
2018-11-20T00:08:09.901Z,1004.10
2018-11-20T00:09:09.899Z,1004.09
2018-11-20T00:10:09.881Z,1004.10
2018-11-20T00:11:09.867Z,1004.05
2018-11-20T00:12:09.913Z,1004.01
2018-11-20T00:13:09.845Z,1003.99
2018-11-20T00:14:09.837Z,1004.00
2018-11-20T00:15:09.821Z,1003.98
2018-11-20T00:16:09.826Z,1003.98
2018-11-20T00:17:09.799Z,1003.94
2018-11-20T00:18:09.838Z,1003.97
2018-11-20T00:19:09.782Z,1003.92
2018-11-20T00:20:09.767Z,1003.97
2018-11-20T00:21:09.760Z,1003.93
2018-11-20T00:22:09.763Z,1003.91
2018-11-20T00:23:09.737Z,1003.76
2018-11-20T00:24:09.778Z,1003.87
2018-11-20T00:25:09.720Z,1003.91
2018-11-20T00:26:09.703Z,1003.87
2018-11-20T00:27:09.690Z,1003.84
2018-11-20T00:28:09.707Z,1003.79
2018-11-20T00:29:09.674Z,1003.77
2018-11-20T00:30:09.773Z,1003.76
2018-11-20T00:31:09.650Z,1003.85
2018-11-20T00:32:09.638Z,1003.84
2018-11-20T00:33:09.691Z,1003.77
2018-11-20T00:34:09.664Z,1003.79
2018-11-20T00:35:09.625Z,1003.81
2018-11-20T00:36:09.591Z,1003.78
2018-11-20T00:37:09.580Z,1003.82
2018-11-20T00:38:09.572Z,1003.77
2018-11-20T00:39:09.570Z,1003.78
2018-11-20T00:40:09.594Z,1003.77
2018-11-20T00:41:09.545Z,1003.80
2018-11-20T00:42:09.529Z,1003.81
2018-11-20T00:43:09.520Z,1003.78
2018-11-20T00:44:09.569Z,1003.80
2018-11-20T00:45:09.497Z,1003.81
2018-11-20T00:46:09.504Z,1003.75
2018-11-20T00:47:09.474Z,1003.86
2018-11-20T00:48:09.463Z,1003.84
2018-11-20T00:49:09.449Z,1003.74
2018-11-20T00:50:09.511Z,1003.77
2018-11-20T00:51:09.441Z,1003.70
2018-11-20T00:52:09.420Z,1003.69
2018-11-20T00:53:09.412Z,1003.72
2018-11-20T00:54:09.699Z,1003.74
2018-11-20T00:55:09.384Z,1003.76
2018-11-20T00:56:09.375Z,1003.71
2018-11-20T00:57:10.181Z,1003.72
2018-11-20T00:58:09.353Z,1003.74
2018-11-20T00:59:09.347Z,1003.77
2018-11-20T01:00:09.377Z,1003.78
2018-11-20T01:01:09.319Z,1003.73
2018-11-20T01:02:09.312Z,1003.75
2018-11-20T01:03:09.361Z,1003.75
2018-11-20T01:04:09.294Z,1003.70
2018-11-20T01:05:09.277Z,1003.71
2018-11-20T01:06:09.263Z,1003.67
2018-11-20T01:07:09.262Z,1003.62
2018-11-20T01:08:09.243Z,1003.66
2018-11-20T01:09:09.280Z,1003.71
2018-11-20T01:10:09.234Z,1003.68
2018-11-20T01:11:09.223Z,1003.73
2018-11-20T01:12:09.219Z,1003.70
2018-11-20T01:13:09.189Z,1003.68
2018-11-20T01:14:09.185Z,1003.70
2018-11-20T01:15:09.211Z,1003.70
2018-11-20T01:16:09.157Z,1003.68
2018-11-20T01:17:09.190Z,1003.70
2018-11-20T01:18:09.133Z,1003.68
2018-11-20T01:19:09.124Z,1003.64
2018-11-20T01:20:09.116Z,1003.64
2018-11-20T01:21:09.117Z,1003.67
2018-11-20T01:22:09.092Z,1003.70
2018-11-20T01:23:09.128Z,1003.65
2018-11-20T01:24:09.124Z,1003.69
2018-11-20T01:25:09.056Z,1003.68
2018-11-20T01:26:09.047Z,1003.63
2018-11-20T01:27:09.090Z,1003.63
2018-11-20T01:28:09.022Z,1003.59
2018-11-20T01:29:09.013Z,1003.54
2018-11-20T01:30:09.008Z,1003.62
2018-11-20T01:31:08.996Z,1003.59
2018-11-20T01:32:08.991Z,1003.56
2018-11-20T01:33:09.014Z,1003.55
2018-11-20T01:34:08.960Z,1003.58
2018-11-20T01:35:09.002Z,1003.54
2018-11-20T01:36:08.938Z,1003.54
2018-11-20T01:37:08.928Z,1003.57
2018-11-20T01:38:08.914Z,1003.53
2018-11-20T01:39:08.902Z,1003.48
2018-11-20T01:40:08.945Z,1003.49
2018-11-20T01:41:08.884Z,1003.46
2018-11-20T01:42:08.877Z,1003.43
2018-11-20T01:43:08.876Z,1003.44
2018-11-20T01:44:08.861Z,1003.36
2018-11-20T01:45:08.841Z,1003.44
2018-11-20T01:46:08.881Z,1003.43
2018-11-20T01:47:08.838Z,1003.41
2018-11-20T01:48:08.805Z,1003.40
2018-11-20T01:49:08.802Z,1003.39
2018-11-20T01:50:08.806Z,1003.40
2018-11-20T01:51:08.796Z,1003.35
2018-11-20T01:52:08.820Z,1003.25
2018-11-20T01:53:08.751Z,1003.33
2018-11-20T01:54:08.740Z,1003.33
2018-11-20T01:55:08.742Z,1003.29
2018-11-20T01:56:08.767Z,1003.26
2018-11-20T01:57:08.708Z,1003.28
2018-11-20T01:58:08.714Z,1003.31
2018-11-20T01:59:08.688Z,1003.29
2018-11-20T02:00:08.680Z,1003.35
2018-11-20T02:01:08.678Z,1003.27
2018-11-20T02:02:08.698Z,1003.11
2018-11-20T02:03:08.653Z,1003.15
2018-11-20T02:04:08.701Z,1003.25
2018-11-20T02:05:08.626Z,1003.15
2018-11-20T02:06:08.616Z,1002.97
2018-11-20T02:07:08.647Z,1003.01
2018-11-20T02:08:08.589Z,1003.08
2018-11-20T02:09:08.578Z,1003.05
2018-11-20T02:10:08.569Z,1003.02
2018-11-20T02:11:08.554Z,1002.98
2018-11-20T02:12:08.547Z,1002.96
2018-11-20T02:13:08.782Z,1003.07
2018-11-20T02:14:08.523Z,1002.99
2018-11-20T02:15:08.778Z,1003.02
2018-11-20T02:16:08.501Z,1003.05
2018-11-20T02:17:08.494Z,1003.01
2018-11-20T02:18:08.477Z,1003.00
2018-11-20T02:19:08.514Z,1002.98
2018-11-20T02:20:08.460Z,1003.00
2018-11-20T02:21:08.450Z,1002.94
2018-11-20T02:22:08.436Z,1002.92
2018-11-20T02:23:08.427Z,1002.97
2018-11-20T02:24:08.431Z,1003.01
2018-11-20T02:25:08.449Z,1003.00
2018-11-20T02:26:08.393Z,1002.97
2018-11-20T02:27:08.382Z,1002.96
2018-11-20T02:28:08.371Z,1002.90
2018-11-20T02:29:08.368Z,1002.88
2018-11-20T02:30:08.381Z,1002.96
2018-11-20T02:31:08.393Z,1002.80
2018-11-20T02:32:08.335Z,1002.89
2018-11-20T02:33:08.315Z,1002.89
2018-11-20T02:34:08.305Z,1002.89
2018-11-20T02:35:08.312Z,1002.98
2018-11-20T02:36:08.569Z,1002.99
2018-11-20T02:37:08.271Z,1002.90
2018-11-20T02:38:08.262Z,1002.96
2018-11-20T02:39:08.249Z,1002.91
2018-11-20T02:40:08.286Z,1002.96
2018-11-20T02:41:08.224Z,1002.92
2018-11-20T02:42:08.277Z,1002.86
2018-11-20T02:43:08.207Z,1002.82
2018-11-20T02:44:08.199Z,1002.82
2018-11-20T02:45:08.184Z,1002.84
2018-11-20T02:46:08.194Z,1002.87
2018-11-20T02:47:08.172Z,1002.77
2018-11-20T02:48:08.236Z,1002.87
2018-11-20T02:49:08.138Z,1002.71
2018-11-20T02:50:08.130Z,1002.88
2018-11-20T02:51:08.121Z,1002.80
2018-11-20T02:52:08.132Z,1002.85
2018-11-20T02:53:08.098Z,1002.86
2018-11-20T02:54:08.131Z,1002.77
2018-11-20T02:55:08.082Z,1002.79
2018-11-20T02:56:08.111Z,1002.70
2018-11-20T02:57:08.092Z,1002.82
2018-11-20T02:58:08.048Z,1002.76
2018-11-20T02:59:08.080Z,1002.74
2018-11-20T03:00:08.023Z,1002.73
2018-11-20T03:01:08.047Z,1002.75
2018-11-20T03:02:08.009Z,1002.74
2018-11-20T03:03:07.988Z,1002.72
2018-11-20T03:04:07.977Z,1002.68
2018-11-20T03:05:07.966Z,1002.66
2018-11-20T03:06:07.957Z,1002.66
2018-11-20T03:07:07.977Z,1002.70
2018-11-20T03:08:07.934Z,1002.64
2018-11-20T03:09:07.928Z,1002.58
2018-11-20T03:10:07.911Z,1002.61
2018-11-20T03:11:07.902Z,1002.56
2018-11-20T03:12:07.926Z,1002.58
2018-11-20T03:13:07.879Z,1002.48
2018-11-20T03:14:07.872Z,1002.54
2018-11-20T03:15:07.859Z,1002.51
2018-11-20T03:16:07.847Z,1002.49
2018-11-20T03:17:07.835Z,1002.50
2018-11-20T03:18:08.114Z,1002.47
2018-11-20T03:19:07.823Z,1002.40
2018-11-20T03:20:07.805Z,1002.43
2018-11-20T03:21:07.791Z,1002.27
2018-11-20T03:22:07.782Z,1002.39
2018-11-20T03:23:07.768Z,1002.29
2018-11-20T03:24:07.796Z,1002.29
2018-11-20T03:25:08.023Z,1002.36
2018-11-20T03:26:07.740Z,1002.24
2018-11-20T03:27:07.823Z,1002.22
2018-11-20T03:28:07.728Z,1002.31
2018-11-20T03:29:07.702Z,1002.25
2018-11-20T03:30:07.699Z,1002.28
2018-11-20T03:31:07.744Z,1002.26
2018-11-20T03:32:07.675Z,1002.20
2018-11-20T03:33:07.662Z,1002.20
2018-11-20T03:34:07.650Z,1002.16
2018-11-20T03:35:07.638Z,1002.16
2018-11-20T03:36:07.686Z,1002.20
2018-11-20T03:37:07.651Z,1002.20
2018-11-20T03:38:07.605Z,1002.23
2018-11-20T03:39:07.594Z,1002.24
2018-11-20T03:40:07.603Z,1002.20
2018-11-20T03:41:07.607Z,1002.25
2018-11-20T03:42:07.577Z,1002.19
2018-11-20T03:43:07.553Z,1002.26
2018-11-20T03:44:07.539Z,1002.26
2018-11-20T03:45:07.531Z,1002.22
2018-11-20T03:46:07.551Z,1002.27
2018-11-20T03:47:07.554Z,1002.11
2018-11-20T03:48:07.518Z,1002.05
2018-11-20T03:49:07.521Z,1002.16
2018-11-20T03:50:07.474Z,1002.10
2018-11-20T03:51:07.464Z,1002.26
2018-11-20T03:52:07.451Z,1002.18
2018-11-20T03:53:07.478Z,1002.07
2018-11-20T03:54:07.436Z,1002.13
2018-11-20T03:55:07.422Z,1002.12
2018-11-20T03:56:07.409Z,1002.19
2018-11-20T03:57:07.434Z,1002.05
2018-11-20T03:58:07.387Z,1002.08
2018-11-20T03:59:07.719Z,1002.06
2018-11-20T04:00:07.370Z,1002.07
2018-11-20T04:01:07.356Z,1002.08
2018-11-20T04:02:07.345Z,1002.10
2018-11-20T04:03:07.331Z,1002.03
2018-11-20T04:04:07.322Z,1001.99
2018-11-20T04:05:07.348Z,1002.05
2018-11-20T04:06:07.304Z,1002.03
2018-11-20T04:07:07.297Z,1002.01
2018-11-20T04:08:07.277Z,1001.95
2018-11-20T04:09:07.267Z,1001.99
2018-11-20T04:10:07.266Z,1002.00
2018-11-20T04:11:07.279Z,1002.02
2018-11-20T04:12:07.249Z,1001.96
2018-11-20T04:13:07.230Z,1001.99
2018-11-20T04:14:07.219Z,1001.99
2018-11-20T04:15:07.218Z,1001.98
2018-11-20T04:16:07.239Z,1002.01
2018-11-20T04:17:07.182Z,1002.01
2018-11-20T04:18:07.169Z,1001.97
2018-11-20T04:19:07.160Z,1001.98
2018-11-20T04:20:07.157Z,1001.93
2018-11-20T04:21:07.136Z,1001.94
2018-11-20T04:22:07.164Z,1001.95
2018-11-20T04:23:07.118Z,1001.98
2018-11-20T04:24:07.119Z,1001.92
2018-11-20T04:25:07.092Z,1001.96
2018-11-20T04:26:07.088Z,1001.94
2018-11-20T04:27:07.074Z,1001.94
2018-11-20T04:28:07.100Z,1001.94
2018-11-20T04:29:07.052Z,1001.90
2018-11-20T04:30:07.040Z,1001.92
2018-11-20T04:31:07.035Z,1001.82
2018-11-20T04:32:07.017Z,1001.85
2018-11-20T04:33:07.014Z,1001.83
2018-11-20T04:34:07.036Z,1001.82
2018-11-20T04:35:06.983Z,1001.87
2018-11-20T04:36:06.971Z,1001.84
2018-11-20T04:37:06.964Z,1001.79
2018-11-20T04:38:06.951Z,1001.85
2018-11-20T04:39:06.940Z,1001.81
2018-11-20T04:40:06.962Z,1001.80
2018-11-20T04:41:06.990Z,1001.85
2018-11-20T04:42:06.908Z,1001.86
2018-11-20T04:43:06.898Z,1001.83
2018-11-20T04:44:06.885Z,1001.84
2018-11-20T04:45:06.875Z,1001.78
2018-11-20T04:46:06.921Z,1001.78
2018-11-20T04:47:06.850Z,1001.78
2018-11-20T04:48:06.847Z,1001.80
2018-11-20T04:49:06.846Z,1001.71
2018-11-20T04:50:06.906Z,1001.75
2018-11-20T04:51:06.818Z,1001.67
2018-11-20T04:52:06.837Z,1001.65
2018-11-20T04:53:06.819Z,1001.61
2018-11-20T04:54:06.776Z,1001.60
2018-11-20T04:55:06.809Z,1001.63
2018-11-20T04:56:06.794Z,1001.68
2018-11-20T04:57:06.748Z,1001.61
2018-11-20T04:58:06.731Z,1001.57
2018-11-20T04:59:06.718Z,1001.62
2018-11-20T05:00:06.707Z,1001.56
2018-11-20T05:01:06.699Z,1001.60
2018-11-20T05:02:06.721Z,1001.53
2018-11-20T05:03:06.685Z,1001.53
2018-11-20T05:04:06.666Z,1001.53
2018-11-20T05:05:06.656Z,1001.54
2018-11-20T05:06:06.646Z,1001.53
2018-11-20T05:07:06.635Z,1001.47
2018-11-20T05:08:06.908Z,1001.51
2018-11-20T05:09:06.616Z,1001.52
2018-11-20T05:10:06.600Z,1001.49
2018-11-20T05:11:06.590Z,1001.45
2018-11-20T05:12:06.580Z,1001.53
2018-11-20T05:13:06.655Z,1001.52
2018-11-20T05:14:06.588Z,1001.47
2018-11-20T05:15:06.577Z,1001.50
2018-11-20T05:16:06.536Z,1001.46
2018-11-20T05:17:06.523Z,1001.44
2018-11-20T05:18:06.593Z,1001.42
2018-11-20T05:19:06.501Z,1001.37
2018-11-20T05:20:06.496Z,1001.38
2018-11-20T05:21:06.479Z,1001.39
2018-11-20T05:22:06.475Z,1001.40
2018-11-20T05:23:06.460Z,1001.36
2018-11-20T05:24:06.481Z,1001.39
2018-11-20T05:25:06.442Z,1001.37
2018-11-20T05:26:06.421Z,1001.33
2018-11-20T05:27:06.415Z,1001.33
2018-11-20T05:28:06.459Z,1001.35
2018-11-20T05:29:06.397Z,1001.34
2018-11-20T05:30:06.414Z,1001.28
2018-11-20T05:31:06.510Z,1001.29
2018-11-20T05:32:06.360Z,1001.30
2018-11-20T05:33:06.350Z,1001.30
2018-11-20T05:34:06.339Z,1001.33
2018-11-20T05:35:06.328Z,1001.31
2018-11-20T05:36:06.357Z,1001.19
2018-11-20T05:37:06.312Z,1001.31
2018-11-20T05:38:06.313Z,1001.29
2018-11-20T05:39:06.284Z,1001.37
2018-11-20T05:40:06.275Z,1001.37
2018-11-20T05:41:06.260Z,1001.38
2018-11-20T05:42:06.286Z,1001.35
2018-11-20T05:43:06.237Z,1001.41
2018-11-20T05:44:06.223Z,1001.39
2018-11-20T05:45:06.211Z,1001.40
2018-11-20T05:46:06.202Z,1001.40
2018-11-20T05:47:06.197Z,1001.35
2018-11-20T05:48:06.234Z,1001.37
2018-11-20T05:49:06.221Z,1001.40
2018-11-20T05:50:06.157Z,1001.37
2018-11-20T05:51:06.148Z,1001.36
2018-11-20T05:52:06.146Z,1001.36
2018-11-20T05:53:06.127Z,1001.35
2018-11-20T05:54:06.153Z,1001.40
2018-11-20T05:55:06.144Z,1001.35
2018-11-20T05:56:06.136Z,1001.35
2018-11-20T05:57:06.084Z,1001.29
2018-11-20T05:58:06.145Z,1001.31
2018-11-20T05:59:06.064Z,1001.29
2018-11-20T06:00:06.054Z,1001.29
2018-11-20T06:01:06.077Z,1001.30
2018-11-20T06:02:06.042Z,1001.32
2018-11-20T06:03:06.017Z,1001.31
2018-11-20T06:04:06.013Z,1001.33
2018-11-20T06:05:06.252Z,1001.26
2018-11-20T06:06:06.068Z,1001.28
2018-11-20T06:07:05.984Z,1001.28
2018-11-20T06:08:05.962Z,1001.24
2018-11-20T06:09:05.970Z,1001.31
2018-11-20T06:10:05.944Z,1001.31
2018-11-20T06:11:06.211Z,1001.27
2018-11-20T06:12:05.919Z,1001.32
2018-11-20T06:13:05.913Z,1001.30
2018-11-20T06:14:05.907Z,1001.26
2018-11-20T06:15:05.909Z,1001.23
2018-11-20T06:16:05.890Z,1001.28
2018-11-20T06:17:05.895Z,1001.22
2018-11-20T06:18:05.878Z,1001.26
2018-11-20T06:19:05.955Z,1001.29
2018-11-20T06:20:05.843Z,1001.25
2018-11-20T06:21:05.830Z,1001.31
2018-11-20T06:22:05.860Z,1001.28
2018-11-20T06:23:05.825Z,1001.29
2018-11-20T06:24:05.883Z,1001.32
2018-11-20T06:25:05.793Z,1001.29
2018-11-20T06:26:05.769Z,1001.26
2018-11-20T06:27:05.772Z,1001.25
2018-11-20T06:28:05.764Z,1001.25
2018-11-20T06:29:05.751Z,1001.25
2018-11-20T06:30:05.770Z,1001.21
2018-11-20T06:31:05.714Z,1001.20
2018-11-20T06:32:05.717Z,1001.20
2018-11-20T06:33:05.702Z,1001.20
2018-11-20T06:34:05.687Z,1001.18
2018-11-20T06:35:05.769Z,1001.12
2018-11-20T06:36:05.698Z,1001.19
2018-11-20T06:37:05.649Z,1001.19
2018-11-20T06:38:05.632Z,1001.19
2018-11-20T06:39:05.623Z,1001.21
2018-11-20T06:40:05.652Z,1001.24
2018-11-20T06:41:05.662Z,1001.19
2018-11-20T06:42:05.642Z,1001.18
2018-11-20T06:43:05.584Z,1001.19
2018-11-20T06:44:05.600Z,1001.17
2018-11-20T06:45:05.629Z,1001.14
2018-11-20T06:46:05.585Z,1001.19
2018-11-20T06:47:05.700Z,1001.16
2018-11-20T06:48:05.524Z,1001.16
2018-11-20T06:49:05.518Z,1001.16
2018-11-20T06:50:05.555Z,1001.18
2018-11-20T06:51:05.576Z,1001.14
2018-11-20T06:52:05.488Z,1001.13
2018-11-20T06:53:05.761Z,1001.18
2018-11-20T06:54:05.488Z,1001.17
2018-11-20T06:55:05.466Z,1001.21
2018-11-20T06:56:05.442Z,1001.23
2018-11-20T06:57:05.436Z,1001.27
2018-11-20T06:58:05.422Z,1001.23
2018-11-20T06:59:05.445Z,1001.19
2018-11-20T07:00:05.402Z,1001.23
2018-11-20T07:01:05.393Z,1001.26
2018-11-20T07:02:05.381Z,1001.25
2018-11-20T07:03:05.366Z,1001.26
2018-11-20T07:04:05.360Z,1001.24
2018-11-20T07:05:05.387Z,1001.25
2018-11-20T07:06:05.338Z,1001.29
2018-11-20T07:07:05.382Z,1001.28
2018-11-20T07:08:05.442Z,1001.27
2018-11-20T07:09:05.308Z,1001.21
2018-11-20T07:10:05.332Z,1001.26
2018-11-20T07:11:05.326Z,1001.28
2018-11-20T07:12:05.274Z,1001.29
2018-11-20T07:13:05.252Z,1001.26
2018-11-20T07:14:05.251Z,1001.27
2018-11-20T07:15:05.285Z,1001.29
2018-11-20T07:16:05.557Z,1001.28
2018-11-20T07:17:05.725Z,1001.22
2018-11-20T07:18:05.197Z,1001.20
2018-11-20T07:19:05.193Z,1001.20
2018-11-20T07:20:05.184Z,1001.22
2018-11-20T07:21:05.257Z,1001.14
2018-11-20T07:23:21.485Z,1001.20
2018-11-20T07:24:21.510Z,1001.22
2018-11-20T07:25:21.444Z,1001.13
2018-11-20T07:26:21.424Z,1001.18
2018-11-20T07:27:29.526Z,1001.17
2018-11-20T07:28:21.398Z,1001.16
2018-11-20T07:29:21.396Z,1001.18
2018-11-20T07:30:21.533Z,1001.14
2018-11-20T07:31:21.434Z,1001.20
2018-11-20T07:32:21.355Z,1001.24
2018-11-20T07:33:21.385Z,1001.20
2018-11-20T07:34:21.329Z,1001.23
2018-11-20T07:35:21.314Z,1001.27
2018-11-20T07:36:21.487Z,1001.29
2018-11-20T07:37:21.481Z,1001.22
2018-11-20T07:38:21.317Z,1001.23
2018-11-20T07:39:21.345Z,1001.21
2018-11-20T07:40:21.272Z,1001.16
2018-11-20T07:41:21.265Z,1001.29
2018-11-20T07:42:21.289Z,1001.24
2018-11-20T07:43:21.322Z,1001.15
2018-11-20T07:44:21.332Z,1001.16
2018-11-20T07:45:21.303Z,1001.14
2018-11-20T07:46:21.216Z,1001.17
2018-11-20T07:47:21.211Z,1001.17
2018-11-20T07:48:21.199Z,1001.18
2018-11-20T07:49:21.465Z,1001.10
2018-11-20T07:50:21.178Z,1001.07
2018-11-20T07:51:21.192Z,1001.12
2018-11-20T07:52:21.138Z,1001.12
2018-11-20T07:53:21.133Z,1001.10
2018-11-20T07:54:21.134Z,1001.08
2018-11-20T07:55:21.161Z,1001.07
2018-11-20T07:56:21.240Z,1001.03
2018-11-20T07:57:21.090Z,1001.01
2018-11-20T07:58:21.079Z,1000.99
2018-11-20T07:59:21.056Z,1001.01
2018-11-20T08:00:21.083Z,1001.04
2018-11-20T08:01:21.111Z,1001.02
2018-11-20T08:02:21.132Z,1001.02
2018-11-20T08:03:21.015Z,1001.04
2018-11-20T08:04:21.004Z,1001.00
2018-11-20T08:05:21.587Z,1001.05
2018-11-20T08:06:21.127Z,1001.08
2018-11-20T08:07:20.982Z,1001.03
2018-11-20T08:08:20.986Z,1001.04
2018-11-20T08:09:20.950Z,1001.00
2018-11-20T08:10:21.028Z,1001.00
2018-11-20T08:11:20.931Z,1001.00
2018-11-20T08:12:21.110Z,1000.96
2018-11-20T08:13:20.908Z,1000.90
2018-11-20T08:14:20.909Z,1000.89
2018-11-20T08:15:20.957Z,1000.91
2018-11-20T08:16:20.882Z,1000.96
2018-11-20T08:17:20.877Z,1000.93
2018-11-20T08:18:20.884Z,1000.88
2018-11-20T08:19:20.845Z,1000.87
2018-11-20T08:20:20.836Z,1000.88
2018-11-20T08:21:20.826Z,1000.89
2018-11-20T08:22:20.818Z,1000.89
2018-11-20T08:23:20.841Z,1000.91
2018-11-20T08:24:20.835Z,1000.92
2018-11-20T08:25:20.853Z,1000.86
2018-11-20T08:26:20.947Z,1000.93
2018-11-20T08:27:20.771Z,1000.93
2018-11-20T08:28:20.770Z,1000.87
2018-11-20T08:29:20.771Z,1000.91
2018-11-20T08:30:20.724Z,1000.87
2018-11-20T08:31:20.767Z,1000.89
2018-11-20T08:32:20.724Z,1000.93
2018-11-20T08:33:20.732Z,1000.89
2018-11-20T08:34:20.797Z,1000.90
2018-11-20T08:35:20.840Z,1000.90
2018-11-20T08:36:20.698Z,1000.91
2018-11-20T08:37:20.674Z,1000.94
2018-11-20T08:38:20.673Z,1000.94
2018-11-20T08:39:20.621Z,1000.88
2018-11-20T08:40:20.624Z,1000.94
2018-11-20T08:41:23.140Z,1000.99
2018-11-20T08:42:22.959Z,1000.98
2018-11-20T08:43:20.592Z,1000.95
2018-11-20T08:44:20.630Z,1000.97
2018-11-20T08:45:20.571Z,1000.95
2018-11-20T08:46:20.596Z,1000.95
2018-11-20T08:47:20.545Z,1000.94
2018-11-20T08:48:20.619Z,1001.02
2018-11-20T08:49:20.516Z,1000.99
2018-11-20T08:50:20.575Z,1000.98
2018-11-20T08:51:20.506Z,1001.03
2018-11-20T08:52:20.496Z,1000.96
2018-11-20T08:53:20.476Z,1000.95
2018-11-20T08:54:20.468Z,1000.95
2018-11-20T08:55:20.472Z,1000.95
2018-11-20T08:56:20.499Z,1001.00
2018-11-20T08:57:20.438Z,1001.03
2018-11-20T08:58:20.468Z,1000.92
2018-11-20T08:59:20.415Z,1000.94
2018-11-20T09:00:20.404Z,1000.93
2018-11-20T09:01:20.404Z,1000.89
2018-11-20T09:02:20.610Z,1000.93
2018-11-20T09:03:20.487Z,1000.94
2018-11-20T09:04:20.356Z,1000.85
2018-11-20T09:05:20.360Z,1000.85
2018-11-20T09:06:20.348Z,1000.93
2018-11-20T09:07:20.435Z,1000.92
2018-11-20T09:08:20.324Z,1000.92
2018-11-20T09:09:20.351Z,1000.96
2018-11-20T09:10:20.329Z,1000.96
2018-11-20T09:11:20.292Z,1000.97
2018-11-20T09:12:20.270Z,1000.92
2018-11-20T09:13:20.268Z,1000.86
2018-11-20T09:14:20.297Z,1000.87
2018-11-20T09:15:20.254Z,1000.85
2018-11-20T09:16:20.225Z,1000.90
2018-11-20T09:17:20.259Z,1000.87
2018-11-20T09:18:20.263Z,1000.87
2018-11-20T09:19:20.204Z,1000.80
2018-11-20T09:20:20.282Z,1000.80
2018-11-20T09:21:20.250Z,1000.77
2018-11-20T09:22:20.176Z,1000.86
2018-11-20T09:23:20.160Z,1000.83
2018-11-20T09:24:20.144Z,1000.78
2018-11-20T09:25:20.128Z,1000.78
2018-11-20T09:26:20.163Z,1000.75
2018-11-20T09:27:20.108Z,1000.76
2018-11-20T09:28:20.108Z,1000.70
2018-11-20T09:29:20.136Z,1000.79
2018-11-20T09:30:20.089Z,1000.76
2018-11-20T09:31:20.077Z,1000.71
2018-11-20T09:32:20.056Z,1000.76
2018-11-20T09:33:20.085Z,1000.70
2018-11-20T09:34:20.059Z,1000.74
2018-11-20T09:35:20.330Z,1000.83
2018-11-20T09:36:20.041Z,1000.77
2018-11-20T09:37:20.021Z,1000.79
2018-11-20T09:38:20.018Z,1000.81
2018-11-20T09:39:19.985Z,1000.85
2018-11-20T09:40:19.966Z,1000.80
2018-11-20T09:41:19.954Z,1000.82
2018-11-20T09:42:19.943Z,1000.83
2018-11-20T09:43:19.990Z,1000.73
2018-11-20T09:44:19.972Z,1000.71
2018-11-20T09:45:19.909Z,1000.76
2018-11-20T09:46:19.909Z,1000.76
2018-11-20T09:47:19.893Z,1000.75
2018-11-20T09:48:19.909Z,1000.73
2018-11-20T09:49:19.922Z,1000.72
2018-11-20T09:50:19.897Z,1000.74
2018-11-20T09:51:19.884Z,1000.73
2018-11-20T09:52:19.948Z,1000.71
2018-11-20T09:53:19.825Z,1000.69
2018-11-20T09:54:19.899Z,1000.71
2018-11-20T09:55:19.862Z,1000.62
2018-11-20T09:56:19.841Z,1000.60
2018-11-20T09:57:19.853Z,1000.62
2018-11-20T09:58:19.793Z,1000.65
2018-11-20T09:59:19.924Z,1000.61
2018-11-20T10:00:19.749Z,1000.52
2018-11-20T10:01:19.789Z,1000.56
2018-11-20T10:02:20.020Z,1000.57
2018-11-20T10:03:19.982Z,1000.54
2018-11-20T10:04:20.103Z,1000.55
2018-11-20T10:05:19.694Z,1000.57
2018-11-20T10:06:19.716Z,1000.51
2018-11-20T10:07:19.759Z,1000.52
2018-11-20T10:08:19.662Z,1000.55
2018-11-20T10:09:20.006Z,1000.60
2018-11-20T10:10:19.657Z,1000.59
2018-11-20T10:11:19.631Z,1000.61
2018-11-20T10:12:19.652Z,1000.55
2018-11-20T10:13:19.692Z,1000.58
2018-11-20T10:14:19.836Z,1000.52
2018-11-20T10:15:19.690Z,1000.56
2018-11-20T10:16:19.593Z,1000.53
2018-11-20T10:17:19.565Z,1000.51
2018-11-20T10:18:19.594Z,1000.48
2018-11-20T10:19:19.544Z,1000.52
2018-11-20T10:20:19.586Z,1000.48
2018-11-20T10:21:19.615Z,1000.43
2018-11-20T10:22:20.276Z,1000.43
2018-11-20T10:23:20.027Z,1000.43
2018-11-20T10:24:19.540Z,1000.46
2018-11-20T10:25:19.576Z,1000.44
2018-11-20T10:26:19.577Z,1000.45
2018-11-20T10:27:19.453Z,1000.36
2018-11-20T10:28:19.494Z,1000.36
2018-11-20T10:29:19.440Z,1000.43
2018-11-20T10:30:19.471Z,1000.39
2018-11-20T10:31:19.422Z,1000.39
2018-11-20T10:32:19.408Z,1000.39
2018-11-20T10:33:19.423Z,1000.38
2018-11-20T10:34:19.489Z,1000.29
2018-11-20T10:35:19.395Z,1000.37
2018-11-20T10:36:19.444Z,1000.39
2018-11-20T10:37:19.358Z,1000.34
2018-11-20T10:38:19.338Z,1000.30
2018-11-20T10:39:19.337Z,1000.32
2018-11-20T10:40:19.333Z,1000.37
2018-11-20T10:41:19.303Z,1000.37
2018-11-20T10:42:19.353Z,1000.33
2018-11-20T10:43:19.289Z,1000.35
2018-11-20T10:44:19.277Z,1000.33
2018-11-20T10:45:19.328Z,1000.32
2018-11-20T10:46:19.437Z,1000.34
2018-11-20T10:47:19.244Z,1000.31
2018-11-20T10:48:19.261Z,1000.34
2018-11-20T10:49:19.229Z,1000.25
2018-11-20T10:50:19.206Z,1000.27
2018-11-20T10:51:19.263Z,1000.29
2018-11-20T10:52:19.187Z,1000.29
2018-11-20T10:53:19.171Z,1000.27
2018-11-20T10:54:19.212Z,1000.27
2018-11-20T10:55:19.146Z,1000.34
2018-11-20T10:56:19.140Z,1000.28
2018-11-20T10:57:19.132Z,1000.27
2018-11-20T10:58:19.122Z,1000.24
2018-11-20T10:59:20.080Z,1000.23
2018-11-20T11:00:19.130Z,1000.22
2018-11-20T11:01:19.102Z,1000.20
2018-11-20T11:02:19.085Z,1000.18
2018-11-20T11:03:19.070Z,1000.18
2018-11-20T11:04:19.197Z,1000.19
2018-11-20T11:05:19.068Z,1000.21
2018-11-20T11:06:19.162Z,1000.15
2018-11-20T11:07:19.041Z,1000.14
2018-11-20T11:08:19.030Z,1000.10
2018-11-20T11:09:18.997Z,1000.11
2018-11-20T11:10:19.015Z,1000.07
2018-11-20T11:11:19.014Z,1000.04
2018-11-20T11:12:19.077Z,1000.02
2018-11-20T11:13:18.965Z,999.97
2018-11-20T11:14:18.947Z,1000.02
2018-11-20T11:15:19.012Z,999.94
2018-11-20T11:16:18.921Z,999.93
2018-11-20T11:17:18.929Z,999.96
2018-11-20T11:18:18.947Z,999.92
2018-11-20T11:19:18.891Z,999.92
2018-11-20T11:20:18.979Z,999.93
2018-11-20T11:21:18.871Z,999.93
2018-11-20T11:22:18.860Z,999.92
2018-11-20T11:23:18.848Z,999.94
2018-11-20T11:24:18.832Z,999.85
2018-11-20T11:25:18.857Z,999.88
2018-11-20T11:26:18.866Z,999.86
2018-11-20T11:27:18.811Z,999.83
2018-11-20T11:28:18.792Z,999.82
2018-11-20T11:29:18.802Z,999.81
2018-11-20T11:30:18.780Z,999.79
2018-11-20T11:31:18.761Z,999.75
2018-11-20T11:32:18.848Z,999.75
2018-11-20T11:33:24.116Z,999.83
2018-11-20T11:34:19.723Z,999.80
2018-11-20T11:35:18.724Z,999.77
2018-11-20T11:36:18.705Z,999.81
2018-11-20T11:37:18.719Z,999.82
2018-11-20T11:38:18.681Z,999.83
2018-11-20T11:39:18.714Z,999.86
2018-11-20T11:40:18.675Z,999.91
2018-11-20T11:41:18.653Z,999.89
2018-11-20T11:42:18.636Z,999.87
2018-11-20T11:43:18.683Z,999.85
2018-11-20T11:44:18.617Z,999.86
2018-11-20T11:45:18.639Z,999.88
2018-11-20T11:46:18.603Z,999.84
2018-11-20T11:47:18.584Z,999.86
2018-11-20T11:48:18.580Z,999.86
2018-11-20T11:49:18.586Z,999.86
2018-11-20T11:50:18.641Z,999.84
2018-11-20T11:51:18.556Z,999.87
2018-11-20T11:52:18.538Z,999.89
2018-11-20T11:53:18.518Z,999.86
2018-11-20T11:54:18.510Z,999.89
2018-11-20T11:55:18.519Z,999.88
2018-11-20T11:56:18.524Z,999.85
2018-11-20T11:57:18.475Z,999.89
2018-11-20T11:58:18.799Z,999.88
2018-11-20T11:59:18.452Z,999.90
2018-11-20T12:00:18.450Z,999.87
2018-11-20T12:01:18.428Z,999.73
2018-11-20T12:03:18.408Z,999.78
2018-11-20T12:04:18.401Z,999.85
2018-11-20T12:05:18.408Z,999.70
2018-11-20T12:06:18.375Z,999.72
2018-11-20T12:07:18.363Z,999.73
2018-11-20T12:08:18.649Z,999.69
2018-11-20T12:09:18.448Z,999.68